Time;durP1;ratioP1;P1;durP2;ratioP2;P2;SDS_P1;SDS_P2;PMS_P1;PMS_P2;Temp;Humidity;BMP_temperature;BMP_pressure;BME280_temperature;BME280_humidity;BME280_pressure;Samples;Min_cycle;Max_cycle;Signal;HPM_P1;HPM_P2
2022/10/29 00:00:26;;;;;;;8.87;5.93;;;;;;;18.62;61.85;99470.50;6918023;28;20709;-80
2022/10/29 00:03:48;;;;;;;12.83;4.77;;;;;;;18.56;61.83;99485.13;6918951;28;20285;-80
2022/10/29 00:07:09;;;;;;;9.87;4.90;;;;;;;18.57;61.31;99497.75;6918432;28;20240;-80
2022/10/29 00:10:31;;;;;;;9.03;5.27;;;;;;;18.09;62.31;99492.50;6917764;28;20287;-80
2022/10/29 00:13:54;;;;;;;17.97;6.47;;;;;;;18.29;62.11;99486.69;6918803;28;20301;-80
2022/10/29 00:17:17;;;;;;;13.73;5.40;;;;;;;18.39;61.71;99471.38;6919274;28;20747;-79
2022/10/29 00:20:39;;;;;;;8.43;5.00;;;;;;;18.29;61.72;99492.97;6917796;28;20320;-80
2022/10/29 00:24:00;;;;;;;9.87;5.00;;;;;;;17.80;62.86;99474.31;6918632;28;20302;-79
2022/10/29 00:27:21;;;;;;;12.40;6.10;;;;;;;17.84;63.11;99477.41;6918750;28;20209;-81
2022/10/29 00:30:43;;;;;;;11.27;5.70;;;;;;;17.81;62.64;99426.84;6918032;28;20293;-80
2022/10/29 00:34:06;;;;;;;14.37;5.70;;;;;;;18.14;61.93;99456.28;6918857;28;20214;-80
2022/10/29 00:37:27;;;;;;;12.53;5.67;;;;;;;18.55;61.60;99480.75;6918382;28;20702;-80
2022/10/29 00:40:49;;;;;;;10.57;5.67;;;;;;;18.44;61.84;99455.13;6917666;28;20230;-80
2022/10/29 00:44:25;;;;;;;8.57;5.50;;;;;;;18.57;61.46;99470.44;6918739;28;20257;-80
2022/10/29 00:47:51;;;;;;;11.83;5.23;;;;;;;18.10;62.62;99468.78;6918926;28;20218;-80
2022/10/29 00:51:15;;;;;;;9.60;5.60;;;;;;;18.53;61.67;99493.81;6919745;28;20285;-80
2022/10/29 00:54:38;;;;;;;11.27;5.27;;;;;;;18.50;61.56;99473.28;6920012;28;20245;-80
2022/10/29 00:58:00;;;;;;;10.70;5.63;;;;;;;18.52;61.22;99467.59;6919534;28;20208;-80
2022/10/29 01:01:22;;;;;;;9.67;5.20;;;;;;;18.34;61.28;99470.47;6919792;28;20240;-79
2022/10/29 01:04:44;;;;;;;9.37;5.63;;;;;;;18.19;61.87;99460.00;6919677;28;20779;-79
2022/10/29 01:08:07;;;;;;;17.53;6.40;;;;;;;17.81;62.85;99478.69;6919318;28;20361;-79
2022/10/29 01:11:40;;;;;;;10.23;5.80;;;;;;;17.73;63.48;99481.78;6919589;28;20846;-80
2022/10/29 01:15:08;;;;;;;10.37;5.93;;;;;;;17.85;64.14;99476.31;6920099;28;20262;-80
2022/10/29 01:18:35;;;;;;;12.67;5.57;;;;;;;18.32;62.26;99469.84;6919946;28;20189;-80
2022/10/29 01:21:59;;;;;;;11.47;5.20;;;;;;;18.40;61.64;99477.69;6920884;28;20230;-79
2022/10/29 01:25:55;;;;;;;10.67;5.73;;;;;;;18.00;62.16;99472.09;6920969;28;20291;-80
2022/10/29 01:29:31;;;;;;;11.10;5.80;;;;;;;17.96;62.55;99470.91;6916198;28;20216;-79
2022/10/29 01:33:03;;;;;;;6.73;5.10;;;;;;;18.37;61.48;99464.50;6916428;28;20276;-79
2022/10/29 01:36:29;;;;;;;15.53;6.90;;;;;;;18.08;61.46;99457.25;6921189;28;20227;-80
2022/10/29 01:39:54;;;;;;;9.73;5.47;;;;;;;17.56;62.24;99444.50;6918511;28;20283;-80
2022/10/29 01:43:20;;;;;;;12.63;6.03;;;;;;;17.78;63.29;99453.78;6921186;28;20290;-79
2022/10/29 01:46:45;;;;;;;18.73;7.00;;;;;;;17.93;63.44;99454.16;6921874;28;20282;-79
2022/10/29 01:50:10;;;;;;;13.23;6.10;;;;;;;18.13;62.61;99439.09;6927597;28;20294;-81
2022/10/29 01:53:34;;;;;;;10.90;5.93;;;;;;;17.96;61.92;99449.06;6935773;28;20269;-80
2022/10/29 01:56:56;;;;;;;14.53;5.50;;;;;;;17.83;62.28;99443.00;6930824;28;20293;-80
2022/10/29 02:00:19;;;;;;;11.37;5.77;;;;;;;17.66;62.70;99451.06;6924489;28;20210;-79
2022/10/29 02:03:47;;;;;;;11.93;5.37;;;;;;;17.83;62.76;99451.19;6923200;28;20214;-79
2022/10/29 02:07:15;;;;;;;8.53;5.37;;;;;;;17.94;62.07;99434.00;6922114;28;20284;-79
2022/10/29 02:10:40;;;;;;;10.30;5.67;;;;;;;17.85;62.17;99438.97;6922945;28;20645;-80
2022/10/29 02:14:04;;;;;;;12.87;6.23;;;;;;;17.66;62.97;99433.84;6925106;28;20285;-80
2022/10/29 02:17:26;;;;;;;9.57;5.60;;;;;;;17.79;62.58;99415.38;6925670;28;20813;-79
2022/10/29 02:20:47;;;;;;;14.70;6.10;;;;;;;17.88;62.34;99433.03;6922926;28;20228;-80
2022/10/29 02:24:10;;;;;;;11.07;5.63;;;;;;;17.80;62.69;99413.47;6922615;28;20686;-79
2022/10/29 02:27:32;;;;;;;10.63;5.80;;;;;;;18.02;62.36;99418.09;6920577;28;20210;-80
2022/10/29 02:30:53;;;;;;;8.93;5.20;;;;;;;17.88;61.96;99419.38;6921841;28;20726;-80
2022/10/29 02:34:15;;;;;;;8.70;5.57;;;;;;;17.68;61.83;99378.00;6921575;28;20269;-79
2022/10/29 02:37:37;;;;;;;13.47;6.20;;;;;;;17.60;63.05;99408.34;6921078;28;20267;-80
2022/10/29 02:41:00;;;;;;;8.67;5.80;;;;;;;17.66;63.24;99406.56;6921347;28;20234;-80
2022/10/29 02:44:21;;;;;;;11.63;6.20;;;;;;;17.95;62.57;99403.75;6918367;28;20659;-80
2022/10/29 02:47:43;;;;;;;8.83;5.73;;;;;;;18.07;62.27;99401.84;6920145;28;20197;-80
2022/10/29 02:51:04;;;;;;;16.63;6.47;;;;;;;18.01;62.26;99410.13;6920823;28;20691;-79
2022/10/29 02:54:26;;;;;;;9.90;5.47;;;;;;;17.85;62.58;99406.22;6921698;28;20245;-80
2022/10/29 02:57:49;;;;;;;10.17;5.80;;;;;;;17.45;63.47;99394.34;6922176;28;20277;-79
2022/10/29 03:01:10;;;;;;;12.20;6.00;;;;;;;17.39;63.99;99367.19;6921888;28;20442;-80
2022/10/29 03:04:32;;;;;;;8.33;5.77;;;;;;;18.00;62.66;99406.59;6921731;28;20351;-79
2022/10/29 03:07:53;;;;;;;9.10;5.60;;;;;;;18.21;61.71;99403.25;6922054;28;20394;-79
2022/10/29 03:11:15;;;;;;;10.53;5.60;;;;;;;18.12;61.81;99388.31;6921748;28;20237;-80
2022/10/29 03:14:38;;;;;;;8.70;5.93;;;;;;;18.00;62.49;99397.56;6922077;28;20223;-79
2022/10/29 03:17:59;;;;;;;13.90;6.23;;;;;;;18.02;62.31;99399.00;6921206;28;20551;-79
2022/10/29 03:21:20;;;;;;;9.13;6.07;;;;;;;17.67;63.38;99392.72;6921264;28;20256;-80
2022/10/29 03:24:42;;;;;;;10.90;5.90;;;;;;;18.06;62.58;99391.16;6921719;28;20652;-79
2022/10/29 03:28:04;;;;;;;9.90;5.37;;;;;;;18.17;62.34;99398.50;6920564;28;20240;-79
2022/10/29 03:31:27;;;;;;;14.57;5.57;;;;;;;18.29;62.02;99397.41;6921544;28;20381;-80
2022/10/29 03:34:48;;;;;;;12.43;5.00;;;;;;;18.24;61.37;99393.75;6921256;28;20374;-79
2022/10/29 03:38:09;;;;;;;7.23;5.20;;;;;;;18.22;61.88;99412.28;6919245;28;20350;-79
2022/10/29 03:41:31;;;;;;;8.80;5.33;;;;;;;17.70;62.77;99421.41;6920691;28;20234;-80
2022/10/29 03:44:52;;;;;;;11.17;5.30;;;;;;;17.38;64.01;99423.59;6921197;28;20289;-79
2022/10/29 03:48:15;;;;;;;11.13;5.50;;;;;;;17.70;62.90;99375.03;6919296;28;20240;-80
2022/10/29 03:51:38;;;;;;;10.20;5.67;;;;;;;18.03;61.98;99405.28;6919516;28;20234;-79
2022/10/29 03:54:59;;;;;;;12.63;5.37;;;;;;;18.24;61.96;99401.94;6919806;28;20218;-79
2022/10/29 03:58:22;;;;;;;11.70;5.80;;;;;;;18.25;62.04;99403.59;6919674;28;20733;-79
2022/10/29 04:01:43;;;;;;;12.10;6.53;;;;;;;17.73;62.65;99380.84;6919059;28;20654;-79
2022/10/29 04:05:07;;;;;;;9.60;5.60;;;;;;;17.87;63.34;99406.81;6922469;28;20277;-79
2022/10/29 04:08:29;;;;;;;9.83;5.80;;;;;;;18.18;62.80;99400.16;6918216;28;20298;-79
2022/10/29 04:11:50;;;;;;;11.07;5.27;;;;;;;18.31;62.46;99400.78;6918407;28;20235;-79
2022/10/29 04:15:12;;;;;;;11.80;5.40;;;;;;;18.56;61.67;99389.53;6919044;28;20229;-79
2022/10/29 04:18:33;;;;;;;11.53;5.37;;;;;;;18.66;61.38;99387.88;6919036;28;20211;-79
2022/10/29 04:21:56;;;;;;;11.23;5.43;;;;;;;17.62;64.05;99392.59;6919760;28;20312;-79
2022/10/29 04:25:17;;;;;;;14.17;6.10;;;;;;;18.22;62.96;99391.25;6920144;28;20285;-79
2022/10/29 04:28:39;;;;;;;11.97;5.90;;;;;;;18.43;62.38;99400.75;6916880;28;20211;-79
2022/10/29 04:32:00;;;;;;;13.77;6.13;;;;;;;18.37;62.36;99407.16;6914767;28;20723;-79
2022/10/29 04:35:22;;;;;;;13.80;5.93;;;;;;;18.38;61.85;99400.63;6918084;28;20302;-79
2022/10/29 04:38:45;;;;;;;16.20;8.07;;;;;;;18.60;61.68;99407.97;6917720;28;20202;-79
2022/10/29 04:42:06;;;;;;;15.20;7.63;;;;;;;18.46;61.62;99389.34;6918173;28;20380;-79
2022/10/29 04:45:28;;;;;;;16.77;6.10;;;;;;;18.52;61.99;99410.22;6918854;28;20291;-79
2022/10/29 04:48:49;;;;;;;12.97;5.77;;;;;;;18.54;61.37;99387.06;6918255;28;20272;-79
2022/10/29 04:52:11;;;;;;;10.33;5.40;;;;;;;18.67;61.17;99396.88;6919182;28;20288;-79
2022/10/29 04:55:36;;;;;;;10.73;4.93;;;;;;;18.82;60.48;99383.53;6919559;28;20263;-79
2022/10/29 04:58:57;;;;;;;10.60;5.17;;;;;;;18.40;61.71;99404.78;6919012;28;20241;-79
2022/10/29 05:02:19;;;;;;;10.10;5.53;;;;;;;18.55;61.68;99409.72;6919562;28;20299;-79
2022/10/29 05:05:41;;;;;;;10.50;5.47;;;;;;;18.81;60.40;99406.47;6918606;28;20259;-79
2022/10/29 05:09:03;;;;;;;13.57;5.73;;;;;;;18.66;60.56;99387.03;6918601;28;20210;-79
2022/10/29 05:12:26;;;;;;;12.43;5.47;;;;;;;18.28;62.50;99408.59;6919282;28;20314;-79
2022/10/29 05:15:50;;;;;;;10.77;5.53;;;;;;;18.77;60.95;99405.28;6919549;28;20252;-79
2022/10/29 05:19:12;;;;;;;7.77;5.27;;;;;;;18.60;60.79;99402.50;6920172;28;20297;-79
2022/10/29 05:22:33;;;;;;;8.00;4.90;;;;;;;18.69;60.47;99401.03;6930784;28;20319;-79
2022/10/29 05:25:55;;;;;;;10.47;6.37;;;;;;;18.36;61.25;99392.69;6934479;28;20211;-79
2022/10/29 05:29:18;;;;;;;11.90;6.10;;;;;;;17.41;64.39;99400.50;6923791;28;20265;-79
2022/10/29 05:32:39;;;;;;;9.33;5.87;;;;;;;18.15;62.65;99390.56;6923925;28;20641;-79
2022/10/29 05:36:01;;;;;;;14.37;5.93;;;;;;;17.90;62.71;99403.63;6923339;28;20218;-79
2022/10/29 05:39:22;;;;;;;8.70;5.60;;;;;;;18.13;62.32;99395.44;6922523;28;20292;-79
2022/10/29 05:42:44;;;;;;;17.07;6.30;;;;;;;18.39;60.89;99396.84;6923240;28;20225;-79
2022/10/29 05:46:07;;;;;;;8.83;5.00;;;;;;;17.97;62.06;99400.75;6924182;28;20205;-80
2022/10/29 05:49:28;;;;;;;10.10;5.33;;;;;;;18.00;61.50;99392.13;6925287;28;20300;-78
2022/10/29 05:52:55;;;;;;;9.87;5.93;;;;;;;18.01;61.94;99404.69;6924545;28;20232;-78
2022/10/29 05:56:16;;;;;;;9.80;5.83;;;;;;;18.00;61.41;99365.66;6902823;28;20199;-79
2022/10/29 05:59:38;;;;;;;13.70;5.20;;;;;;;17.89;61.11;99355.59;6898268;28;20304;-79
2022/10/29 06:03:01;;;;;;;10.33;5.33;;;;;;;18.02;60.84;99395.44;6898614;28;20322;-79
2022/10/29 06:06:22;;;;;;;15.17;5.93;;;;;;;17.31;63.09;99381.13;6898555;28;20285;-79
2022/10/29 06:09:44;;;;;;;14.43;6.60;;;;;;;17.83;61.46;99378.38;6901188;28;20318;-79
2022/10/29 06:13:10;;;;;;;9.23;6.23;;;;;;;17.81;61.28;99388.66;6901546;28;20231;-79
2022/10/29 06:16:31;;;;;;;12.10;4.90;;;;;;;18.00;60.61;99394.84;6896523;28;20253;-79
2022/10/29 06:19:54;;;;;;;11.10;5.43;;;;;;;18.18;60.02;99386.53;6921240;28;20297;-80
2022/10/29 06:23:16;;;;;;;14.20;5.00;;;;;;;18.17;60.09;99398.50;6924670;28;20367;-79
2022/10/29 06:26:37;;;;;;;10.87;5.20;;;;;;;18.02;60.20;99409.91;6923982;28;20274;-79
2022/10/29 06:29:59;;;;;;;21.50;5.63;;;;;;;17.43;61.20;99371.09;6924454;28;20375;-81
2022/10/29 06:33:21;;;;;;;7.67;5.33;;;;;;;17.89;60.50;99382.88;6924646;28;20297;-82
2022/10/29 06:36:44;;;;;;;10.27;5.53;;;;;;;17.73;61.49;99412.75;6916934;28;20229;-79
2022/10/29 06:40:06;;;;;;;7.90;5.47;;;;;;;17.89;61.31;99415.63;6923626;28;20296;-79
2022/10/29 06:43:28;;;;;;;15.90;5.63;;;;;;;17.27;61.56;99377.22;6925674;28;20694;-79
2022/10/29 06:46:49;;;;;;;11.83;5.40;;;;;;;18.03;61.17;99416.19;6911265;28;20205;-79
2022/10/29 06:50:12;;;;;;;12.67;6.30;;;;;;;18.04;60.81;99413.22;6925693;28;20312;-81
2022/10/29 06:53:35;;;;;;;8.53;5.40;;;;;;;18.17;60.54;99420.34;6913494;28;20281;-80
2022/10/29 06:56:56;;;;;;;9.30;5.53;;;;;;;18.42;59.41;99412.75;6924243;28;20258;-81
2022/10/29 07:00:18;;;;;;;11.37;5.33;;;;;;;18.13;60.00;99421.88;6923778;28;20221;-80
2022/10/29 07:03:40;;;;;;;10.43;5.43;;;;;;;17.75;60.63;99421.53;6923709;28;20338;-79
2022/10/29 07:07:01;;;;;;;11.80;6.53;;;;;;;18.09;60.12;99394.25;6924380;28;20290;-79
2022/10/29 07:10:25;;;;;;;8.80;4.83;;;;;;;18.27;59.78;99418.66;6921148;28;20694;-79
2022/10/29 07:13:46;;;;;;;9.53;5.77;;;;;;;18.51;59.71;99427.69;6921336;28;20204;-79
2022/10/29 07:17:08;;;;;;;16.63;5.97;;;;;;;18.55;59.31;99434.31;6921808;28;20301;-80
2022/10/29 07:20:31;;;;;;;16.73;6.10;;;;;;;18.67;58.42;99425.03;6922890;28;20292;-81
2022/10/29 07:23:52;;;;;;;13.67;5.53;;;;;;;18.78;58.53;99415.97;6922601;28;20200;-81
2022/10/29 07:27:15;;;;;;;14.07;7.03;;;;;;;19.09;58.29;99422.84;6920895;28;20244;-80
2022/10/29 07:30:37;;;;;;;19.67;6.80;;;;;;;19.35;56.84;99425.03;6920006;28;20385;-79
2022/10/29 07:33:59;;;;;;;16.07;6.63;;;;;;;19.48;57.30;99430.16;6922049;28;20263;-79
2022/10/29 07:37:20;;;;;;;13.97;6.47;;;;;;;19.81;56.03;99398.16;6920284;28;20943;-79
2022/10/29 07:40:47;;;;;;;13.67;5.60;;;;;;;20.05;55.35;99407.84;6919057;28;20285;-79
2022/10/29 07:44:10;;;;;;;18.97;5.70;;;;;;;19.98;55.61;99403.66;6895271;28;20292;-80
2022/10/29 07:47:31;;;;;;;14.63;5.60;;;;;;;20.50;54.23;99415.91;6892190;28;20268;-79
2022/10/29 07:50:53;;;;;;;13.47;5.83;;;;;;;20.56;54.07;99417.63;6893157;28;20701;-79
2022/10/29 07:54:14;;;;;;;10.97;5.47;;;;;;;20.74;54.27;99433.78;6895513;28;20287;-79
2022/10/29 07:57:36;;;;;;;12.83;5.37;;;;;;;20.81;54.18;99439.88;6894695;28;20232;-80
2022/10/29 08:01:00;;;;;;;11.37;5.97;;;;;;;20.92;54.54;99434.28;6896244;28;20300;-78
2022/10/29 08:04:22;;;;;;;15.20;6.03;;;;;;;21.04;54.16;99434.16;6893476;28;20204;-80
2022/10/29 08:07:43;;;;;;;11.20;5.20;;;;;;;21.77;52.92;99429.72;6892757;28;20804;-78
2022/10/29 08:11:05;;;;;;;13.93;5.67;;;;;;;24.02;47.16;99444.44;6905793;28;20227;-78
2022/10/29 08:14:27;;;;;;;8.00;4.90;;;;;;;25.33;43.70;99429.19;6921046;28;20202;-78
2022/10/29 08:17:50;;;;;;;11.17;4.90;;;;;;;26.26;41.65;99423.19;6920180;28;20875;-78
2022/10/29 08:21:11;;;;;;;11.53;4.20;;;;;;;26.64;40.73;99421.44;6920309;28;20253;-78
2022/10/29 08:24:33;;;;;;;8.80;4.83;;;;;;;25.94;41.30;99408.28;6919753;28;20306;-78
2022/10/29 08:27:59;;;;;;;13.30;5.00;;;;;;;25.45;42.49;99399.28;6893177;28;20339;-78
2022/10/29 08:31:20;;;;;;;13.47;5.17;;;;;;;25.00;44.26;99424.34;6914702;28;20239;-79
2022/10/29 08:34:43;;;;;;;8.67;4.67;;;;;;;24.10;46.26;99430.09;6921134;28;20208;-79
2022/10/29 08:38:04;;;;;;;10.67;5.47;;;;;;;24.48;45.93;99399.97;6921107;28;20240;-79
2022/10/29 08:41:35;;;;;;;10.30;4.97;;;;;;;24.13;46.16;99394.56;6925622;28;20272;-80
2022/10/29 08:45:13;;;;;;;14.83;5.60;;;;;;;23.75;47.74;99421.81;6936261;28;20266;-80
2022/10/29 08:48:38;;;;;;;8.77;4.40;;;;;;;23.36;48.97;99415.19;6922717;28;20280;-80
2022/10/29 08:52:03;;;;;;;8.90;5.53;;;;;;;23.85;48.47;99381.34;6920856;28;20700;-79
2022/10/29 08:55:27;;;;;;;10.30;5.17;;;;;;;24.10;48.48;99416.34;6919880;28;20351;-80
2022/10/29 08:58:54;;;;;;;10.17;4.53;;;;;;;24.47;47.62;99416.78;6921030;28;20303;-79
2022/10/29 09:02:17;;;;;;;12.70;5.73;;;;;;;24.63;47.71;99408.25;6919769;28;20322;-79
2022/10/29 09:05:49;;;;;;;10.83;5.10;;;;;;;24.74;46.57;99409.03;6921268;28;20344;-80
2022/10/29 09:09:24;;;;;;;11.33;5.07;;;;;;;24.70;46.80;99372.91;6919804;28;20271;-80
2022/10/29 09:13:00;;;;;;;11.23;5.30;;;;;;;24.97;46.81;99414.72;6903590;28;20275;-79
2022/10/29 09:16:28;;;;;;;11.10;5.43;;;;;;;24.89;46.58;99397.94;6895447;28;20203;-79
2022/10/29 09:20:01;;;;;;;10.87;5.63;;;;;;;25.00;47.12;99402.28;6918296;28;20287;-80
2022/10/29 09:23:30;;;;;;;10.70;4.90;;;;;;;25.11;46.22;99404.72;6917928;28;20776;-79
2022/10/29 09:26:57;;;;;;;15.30;5.47;;;;;;;25.78;45.68;99407.56;6919669;28;20222;-80
2022/10/29 09:30:20;;;;;;;13.13;5.53;;;;;;;26.13;45.55;99392.66;6893106;28;20230;-80
2022/10/29 09:33:41;;;;;;;11.70;5.70;;;;;;;26.15;43.37;99393.19;6893914;28;20344;-79
2022/10/29 09:37:04;;;;;;;8.97;4.67;;;;;;;25.98;42.71;99381.75;6894040;28;20666;-79
2022/10/29 09:40:31;;;;;;;11.90;5.10;;;;;;;26.39;42.99;99391.25;6893924;28;20227;-79
2022/10/29 09:44:00;;;;;;;10.47;5.30;;;;;;;26.45;42.78;99377.09;6900814;28;20301;-79
2022/10/29 09:47:31;;;;;;;10.83;4.63;;;;;;;26.41;42.95;99378.78;6911007;28;20208;-79
2022/10/29 09:51:00;;;;;;;9.23;4.77;;;;;;;26.96;41.47;99349.63;6911778;28;20270;-79
2022/10/29 09:54:23;;;;;;;13.80;5.00;;;;;;;26.81;41.63;99363.66;6915650;28;20231;-79
2022/10/29 09:57:45;;;;;;;13.57;4.50;;;;;;;27.25;40.09;99381.63;6899104;28;20286;-79
2022/10/29 10:01:08;;;;;;;8.80;4.40;;;;;;;27.47;39.90;99367.16;6895819;28;20240;-80
2022/10/29 10:04:35;;;;;;;9.03;3.87;;;;;;;27.79;38.42;99379.13;6907740;28;20205;-80
2022/10/29 10:08:11;;;;;;;8.33;5.27;;;;;;;27.66;39.74;99374.31;6919884;28;20245;-79
2022/10/29 10:11:37;;;;;;;10.47;4.87;;;;;;;27.75;39.70;99380.84;6916879;28;20259;-79
2022/10/29 10:15:06;;;;;;;11.90;5.07;;;;;;;27.63;39.17;99366.63;6918178;28;20214;-79
2022/10/29 10:18:39;;;;;;;13.87;4.40;;;;;;;27.78;39.19;99371.13;6912080;28;20715;-79
2022/10/29 10:22:02;;;;;;;8.67;4.23;;;;;;;28.10;38.47;99338.66;6905368;28;20301;-79
2022/10/29 10:25:35;;;;;;;10.83;5.00;;;;;;;28.62;37.25;99354.03;6924274;28;20686;-78
2022/10/29 10:29:11;;;;;;;13.27;4.93;;;;;;;28.15;37.53;99348.81;6923724;28;20196;-79
2022/10/29 10:32:33;;;;;;;12.60;4.73;;;;;;;28.01;38.12;99359.09;6909197;28;20233;-79
2022/10/29 10:36:00;;;;;;;13.03;4.90;;;;;;;28.12;38.11;99352.19;6909496;28;20212;-79
2022/10/29 10:39:28;;;;;;;10.33;5.00;;;;;;;28.21;37.86;99353.97;6928869;28;20278;-79
2022/10/29 10:42:49;;;;;;;9.50;4.67;;;;;;;28.49;37.05;99360.41;6898480;28;20340;-81
2022/10/29 10:46:22;;;;;;;8.33;4.00;;;;;;;28.23;37.62;99312.03;6909094;28;20209;-80
2022/10/29 10:49:43;;;;;;;10.87;4.13;;;;;;;28.53;37.88;99325.34;6896379;28;20283;-80
2022/10/29 10:53:16;;;;;;;9.67;4.27;;;;;;;28.96;36.80;99330.25;6916183;28;20236;-79
2022/10/29 10:56:51;;;;;;;8.13;3.93;;;;;;;28.29;38.29;99327.47;6920528;28;20279;-79
2022/10/29 11:00:17;;;;;;;12.87;5.00;;;;;;;28.41;36.67;99328.63;6921977;28;20208;-78
2022/10/29 11:03:41;;;;;;;9.07;4.00;;;;;;;28.64;37.00;99324.81;6922824;28;20208;-78
2022/10/29 11:07:05;;;;;;;12.67;4.13;;;;;;;28.62;36.91;99324.31;6922386;28;20239;-77
2022/10/29 11:10:34;;;;;;;9.17;3.80;;;;;;;28.87;36.28;99297.94;6920602;28;20223;-78
2022/10/29 11:14:00;;;;;;;9.40;4.73;;;;;;;29.26;35.58;99315.66;6922885;28;20282;-79
2022/10/29 11:17:27;;;;;;;8.03;3.57;;;;;;;29.34;35.69;99314.91;6899907;28;20231;-79
2022/10/29 11:21:00;;;;;;;7.30;3.40;;;;;;;29.47;34.75;99302.91;6919997;28;20246;-78
2022/10/29 11:24:25;;;;;;;9.97;4.23;;;;;;;28.47;36.25;99284.94;6913755;28;20630;-79
2022/10/29 11:27:53;;;;;;;11.47;4.23;;;;;;;29.31;35.00;99304.41;6907731;28;20342;-79
2022/10/29 11:31:20;;;;;;;5.47;3.53;;;;;;;29.55;35.23;99293.84;6922490;28;20369;-79
2022/10/29 11:34:47;;;;;;;7.13;3.87;;;;;;;29.96;35.30;99294.41;6908626;28;20310;-78
2022/10/29 11:38:15;;;;;;;10.43;3.70;;;;;;;30.20;35.35;99292.09;6918061;28;20270;-79
2022/10/29 11:41:41;;;;;;;8.27;3.73;;;;;;;30.04;34.27;99295.59;6922487;28;20315;-79
2022/10/29 11:45:05;;;;;;;11.67;4.40;;;;;;;29.15;36.58;99300.38;6895358;28;20197;-79
2022/10/29 11:48:36;;;;;;;7.80;3.90;;;;;;;29.81;35.20;99291.22;6920322;28;20296;-79
2022/10/29 11:52:02;;;;;;;6.27;3.73;;;;;;;29.66;34.94;99292.44;6914943;28;20315;-79
2022/10/29 11:55:30;;;;;;;14.50;4.63;;;;;;;29.96;35.54;99276.94;6908668;28;20216;-80
2022/10/29 11:58:55;;;;;;;10.13;4.10;;;;;;;30.28;34.31;99255.16;6901076;28;20283;-82
2022/10/29 12:02:26;;;;;;;14.93;8.43;;;;;;;30.52;34.83;99266.69;6893922;28;20324;-80
2022/10/29 12:05:57;;;;;;;9.50;4.60;;;;;;;30.61;34.44;99261.94;6894461;28;20200;-79
2022/10/29 12:09:36;;;;;;;11.67;4.33;;;;;;;29.88;34.82;99245.16;6892663;28;20716;-80
2022/10/29 12:13:02;;;;;;;10.00;4.00;;;;;;;30.55;34.66;99242.94;6894671;28;20234;-80
2022/10/29 12:16:35;;;;;;;10.97;4.30;;;;;;;30.38;34.24;99224.22;6905784;28;20817;-80
2022/10/29 12:20:04;;;;;;;9.97;4.63;;;;;;;30.90;33.62;99233.53;6920028;28;20255;-80
2022/10/29 12:23:34;;;;;;;8.97;4.47;;;;;;;30.08;35.49;99238.19;6921631;28;20660;-80
2022/10/29 12:27:01;;;;;;;10.33;4.30;;;;;;;30.62;35.31;99223.81;6921334;28;20286;-80
2022/10/29 12:30:23;;;;;;;13.27;4.50;;;;;;;30.90;34.39;99225.97;6920836;28;20212;-80
2022/10/29 12:33:48;;;;;;;8.83;4.20;;;;;;;30.94;35.28;99226.13;6920536;28;20592;-81
2022/10/29 12:37:17;;;;;;;9.83;4.57;;;;;;;30.40;35.54;99230.31;6897093;28;20269;-80
2022/10/29 12:40:41;;;;;;;15.03;4.10;;;;;;;30.91;35.49;99218.44;6893946;28;20288;-80
2022/10/29 12:44:08;;;;;;;6.97;3.87;;;;;;;31.37;33.83;99216.63;6918079;28;20202;-80
2022/10/29 12:47:33;;;;;;;10.70;4.10;;;;;;;31.21;34.28;99211.91;6903853;28;20209;-80
2022/10/29 12:51:00;;;;;;;7.83;4.10;;;;;;;30.57;35.19;99160.75;6911305;28;20718;-79
2022/10/29 12:54:31;;;;;;;12.63;4.60;;;;;;;31.19;34.14;99203.88;6914945;28;20749;-80
2022/10/29 12:57:53;;;;;;;8.60;4.40;;;;;;;31.11;34.32;99204.69;6919958;28;20292;-79
2022/10/29 13:01:48;;;;;;;10.50;4.47;;;;;;;31.02;34.38;99183.56;6918330;28;20375;-80
2022/10/29 13:05:32;;;;;;;8.00;4.20;;;;;;;30.73;35.06;99181.41;6836635;29;20215;-79
2022/10/29 13:08:55;;;;;;;13.43;4.53;;;;;;;30.77;36.01;99181.59;6847173;28;20718;-80
2022/10/29 13:12:50;;;;;;;11.27;5.03;;;;;;;30.94;35.66;99185.19;6920304;28;20674;-80
2022/10/29 13:16:16;;;;;;;20.60;14.10;;;;;;;31.05;36.80;99164.22;6893446;28;20228;-80
2022/10/29 13:19:42;;;;;;;19.03;9.50;;;;;;;30.57;36.58;99113.44;6897400;28;20194;-80
2022/10/29 13:23:31;;;;;;;9.57;4.70;;;;;;;30.82;36.33;99176.66;6905833;28;20256;-81
2022/10/29 13:27:08;;;;;;;21.10;11.77;;;;;;;30.70;36.32;99168.16;6913913;28;20579;-79
2022/10/29 13:30:30;;;;;;;35.43;18.73;;;;;;;30.54;37.52;99152.25;6918771;28;20733;-82
2022/10/29 13:33:53;;;;;;;24.27;12.93;;;;;;;30.45;38.84;99165.31;6919663;28;20236;-80
2022/10/29 13:38:02;;;;;;;15.60;7.30;;;;;;;30.49;38.76;99161.56;6920581;28;20247;-80
2022/10/29 13:41:28;;;;;;;8.47;4.00;;;;;;;30.41;38.71;99142.88;6917865;28;20236;-80
2022/10/29 13:45:03;;;;;;;12.77;5.80;;;;;;;30.33;38.41;99163.19;6919290;28;20250;-81
2022/10/29 13:48:28;;;;;;;16.17;5.33;;;;;;;30.37;36.16;99147.47;6925053;28;20205;-80
2022/10/29 13:51:55;;;;;;;13.83;6.07;;;;;;;30.41;36.53;99154.03;6926654;28;20371;-80
2022/10/29 13:55:17;;;;;;;12.73;5.60;;;;;;;29.98;38.62;99132.78;6926855;28;20246;-80
2022/10/29 13:58:41;;;;;;;11.37;4.97;;;;;;;30.12;38.86;99130.72;6925821;28;20210;-80
2022/10/29 14:02:16;;;;;;;15.30;4.93;;;;;;;30.08;38.95;99144.44;6925853;28;20236;-80
2022/10/29 14:05:40;;;;;;;7.87;4.20;;;;;;;29.13;41.67;99135.19;6926832;28;20674;-80
2022/10/29 14:09:10;;;;;;;12.33;4.83;;;;;;;29.44;41.56;99138.78;6925074;28;20779;-81
2022/10/29 14:12:32;;;;;;;12.33;4.60;;;;;;;29.44;41.39;99131.28;6926538;28;20672;-80
2022/10/29 14:16:02;;;;;;;9.33;4.90;;;;;;;29.23;41.75;99127.41;6925197;28;20232;-80
2022/10/29 14:19:23;;;;;;;11.40;4.40;;;;;;;29.16;40.75;99132.59;6925073;28;20216;-80
2022/10/29 14:22:45;;;;;;;13.10;4.10;;;;;;;29.28;40.32;99129.22;6926466;28;20604;-80
2022/10/29 14:26:14;;;;;;;6.70;4.20;;;;;;;29.41;41.24;99131.91;6926540;28;20354;-80
2022/10/29 14:29:37;;;;;;;12.27;5.17;;;;;;;29.34;41.92;99114.88;6911974;28;20259;-81
2022/10/29 14:32:58;;;;;;;15.53;5.13;;;;;;;29.31;42.00;99132.16;6924207;28;20234;-80
2022/10/29 14:36:22;;;;;;;10.70;5.03;;;;;;;29.18;42.87;99123.94;6925783;28;20294;-80
2022/10/29 14:39:46;;;;;;;13.23;4.70;;;;;;;28.83;42.79;99100.66;6898512;28;20302;-81
2022/10/29 14:43:19;;;;;;;10.60;4.83;;;;;;;29.00;42.77;99128.56;6899581;28;20366;-80
2022/10/29 14:46:41;;;;;;;12.40;4.80;;;;;;;29.05;42.94;99128.44;6899130;28;20299;-80
2022/10/29 14:50:04;;;;;;;9.93;4.60;;;;;;;28.76;43.67;99119.72;6898413;28;20235;-80
2022/10/29 14:53:30;;;;;;;12.40;4.70;;;;;;;28.47;42.69;99118.47;6900548;28;20334;-80
2022/10/29 14:56:55;;;;;;;11.07;5.47;;;;;;;28.56;43.34;99130.50;6902012;28;20188;-80
2022/10/29 15:00:24;;;;;;;11.30;4.77;;;;;;;28.37;44.39;99136.19;6899989;28;20296;-80
2022/10/29 15:03:46;;;;;;;9.77;3.93;;;;;;;28.19;44.81;99116.91;6907387;28;20255;-80
2022/10/29 15:07:22;;;;;;;13.47;5.10;;;;;;;28.12;44.95;99141.44;6909602;28;20232;-81
2022/10/29 15:10:45;;;;;;;9.47;4.13;;;;;;;27.55;46.03;99120.72;6905844;28;20229;-81
2022/10/29 15:14:25;;;;;;;9.90;4.67;;;;;;;27.60;46.15;99131.72;6901198;28;20235;-80
2022/10/29 15:17:51;;;;;;;10.60;4.80;;;;;;;26.96;48.07;99139.28;6900477;28;20276;-80
2022/10/29 15:21:12;;;;;;;12.03;4.53;;;;;;;26.66;48.77;99135.06;6904282;28;20333;-80
2022/10/29 15:24:34;;;;;;;11.73;5.07;;;;;;;26.91;47.19;99126.34;6923491;28;20289;-80
2022/10/29 15:27:55;;;;;;;14.53;5.20;;;;;;;26.84;47.86;99141.69;6922322;28;20208;-80
2022/10/29 15:31:20;;;;;;;12.07;5.17;;;;;;;26.42;48.66;99120.47;6923800;28;20280;-82
2022/10/29 15:34:50;;;;;;;11.57;5.03;;;;;;;26.31;49.02;99120.94;6916547;28;20703;-81
2022/10/29 15:38:45;;;;;;;139.60;66.27;;;;;;;26.50;49.18;99135.56;6898951;28;20230;-81
2022/10/29 15:42:19;;;;;;;14.93;5.77;;;;;;;26.02;50.27;99117.50;6903110;28;20263;-80
2022/10/29 15:45:55;;;;;;;16.63;5.17;;;;;;;25.79;50.17;99132.13;6923942;28;20289;-83
2022/10/29 15:49:17;;;;;;;11.90;5.80;;;;;;;25.72;50.22;99128.91;6916076;28;20220;-82
2022/10/29 15:52:41;;;;;;;11.90;5.33;;;;;;;25.60;50.47;99121.03;6925206;28;20328;-80
2022/10/29 15:56:03;;;;;;;11.43;6.30;;;;;;;25.25;50.90;99107.63;6916994;28;20213;-81